^^
Station Historical Data
Daily Summary for June 5, 2021 Units:  English    Metric   Both
Daily Weekly Monthly Yearly
  High: Low: Average:
Temperature: 80.5 °F 70.8 °F 75.1 °F
Dew Point: 67.6 °F 59.3 °F 63.6 °F
Humidity: 73% 57% 68%
Wind Speed: 6mph 1mph 3.9mph
Wind Gust: 10mph - -
Wind- - SW
Pressure: 29.81 in 29.73 in -
Precipitation: 0.00 in    
 
 
Tabular Data for June 5, 2021
Time Temperature Dew Point Pressure Wind Wind Speed Wind Gust Humidity Rainfall Rate (Hourly) solar
00:00 77 °F 62 °F 29.73 in SW 4 mph 4 mph 60% 0.00 in 0 W/m2
00:05 77.2 °F 61.3 °F 29.73 in WSW 5 mph 5 mph 58% 0.00 in 0 W/m2
00:10 77.2 °F 61.3 °F 29.73 in SW 5 mph 7 mph 58% 0.00 in 0 W/m2
00:15 77.1 °F 60.7 °F 29.74 in SSW 6 mph 7 mph 57% 0.00 in 0 W/m2
00:20 76.8 °F 61.9 °F 29.73 in WSW 5 mph 8 mph 60% 0.00 in 0 W/m2
00:25 76.6 °F 61.2 °F 29.73 in SSW 5 mph 8 mph 59% 0.00 in 0 W/m2
00:30 76.4 °F 61 °F 29.73 in SW 5 mph 5 mph 59% 0.00 in 0 W/m2
00:35 76.3 °F 61.4 °F 29.73 in South 5 mph 5 mph 60% 0.00 in 0 W/m2
00:40 76.3 °F 60.4 °F 29.73 in WSW 5 mph 5 mph 58% 0.00 in 0 W/m2
00:45 76.2 °F 61.3 °F 29.73 in SSW 5 mph 5 mph 60% 0.00 in 0 W/m2
00:50 75.9 °F 61.5 °F 29.74 in SSW 6 mph 7 mph 61% 0.00 in 0 W/m2
00:55 75.8 °F 60.9 °F 29.73 in SW 6 mph 7 mph 60% 0.00 in 0 W/m2
01:00 75.7 °F 60.8 °F 29.73 in SW 5 mph 6 mph 60% 0.00 in 0 W/m2
01:05 75.6 °F 60.7 °F 29.73 in SW 5 mph 6 mph 60% 0.00 in 0 W/m2
01:10 75.4 °F 60.5 °F 29.73 in SE 5 mph 6 mph 60% 0.00 in 0 W/m2
01:15 75.4 °F 60.5 °F 29.74 in South 5 mph 6 mph 60% 0.00 in 0 W/m2
01:20 75.4 °F 60.5 °F 29.74 in SW 6 mph 6 mph 60% 0.00 in 0 W/m2
01:25 75.3 °F 60.9 °F 29.74 in WNW 6 mph 6 mph 61% 0.00 in 0 W/m2
01:30 75.2 °F 59.9 °F 29.74 in South 6 mph 6 mph 59% 0.00 in 0 W/m2
01:35 75.1 °F 60.7 °F 29.74 in SSW 6 mph 6 mph 61% 0.00 in 0 W/m2
01:40 74.9 °F 60.5 °F 29.74 in SSW 6 mph 7 mph 61% 0.00 in 0 W/m2
01:45 74.7 °F 60.8 °F 29.74 in SSW 6 mph 7 mph 62% 0.00 in 0 W/m2
01:50 74.4 °F 61 °F 29.74 in WSW 6 mph 6 mph 63% 0.00 in 0 W/m2
01:55 74.3 °F 60.4 °F 29.74 in WSW 6 mph 6 mph 62% 0.00 in 0 W/m2
02:00 74 °F 61.5 °F 29.74 in WSW 5 mph 5 mph 65% 0.00 in 0 W/m2
02:05 73.8 °F 61.3 °F 29.74 in SSW 5 mph 5 mph 65% 0.00 in 0 W/m2
02:10 73.4 °F 61.3 °F 29.74 in SW 5 mph 5 mph 66% 0.00 in 0 W/m2
02:15 73 °F 61.4 °F 29.74 in SW 4 mph 5 mph 67% 0.00 in 0 W/m2
02:20 72.8 °F 61.6 °F 29.74 in SW 4 mph 4 mph 68% 0.00 in 0 W/m2
02:25 72.6 °F 61.4 °F 29.74 in SW 4 mph 4 mph 68% 0.00 in 0 W/m2
02:30 72.6 °F 61.4 °F 29.74 in SW 4 mph 4 mph 68% 0.00 in 0 W/m2
02:35 72.4 °F 61.7 °F 29.74 in SSW 4 mph 5 mph 69% 0.00 in 0 W/m2
02:40 72.2 °F 61.5 °F 29.74 in SW 4 mph 5 mph 69% 0.00 in 0 W/m2
02:45 72.1 °F 61.4 °F 29.74 in West 4 mph 5 mph 69% 0.00 in 0 W/m2
02:50 72 °F 61.7 °F 29.75 in SW 4 mph 4 mph 70% 0.00 in 0 W/m2
02:55 71.8 °F 61.1 °F 29.75 in SW 4 mph 4 mph 69% 0.00 in 0 W/m2
03:00 71.7 °F 61 °F 29.75 in SSW 4 mph 4 mph 69% 0.00 in 0 W/m2
03:05 71.7 °F 61.4 °F 29.75 in SW 4 mph 4 mph 70% 0.00 in 0 W/m2
03:10 71.6 °F 61.3 °F 29.75 in WSW 3 mph 7 mph 70% 0.00 in 0 W/m2
03:15 71.6 °F 61.7 °F 29.75 in SSW 3 mph 7 mph 71% 0.00 in 0 W/m2
03:20 71.5 °F 61.2 °F 29.76 in WSW 3 mph 4 mph 70% 0.00 in 0 W/m2
03:25 71.5 °F 61.2 °F 29.76 in WNW 4 mph 4 mph 70% 0.00 in 0 W/m2
03:30 71.5 °F 61.6 °F 29.76 in SSW 4 mph 4 mph 71% 0.00 in 0 W/m2
03:35 71.4 °F 61.1 °F 29.76 in South 4 mph 4 mph 70% 0.00 in 0 W/m2
03:40 71.5 °F 61.2 °F 29.76 in SW 3 mph 6 mph 70% 0.00 in 0 W/m2
03:45 71.4 °F 61.1 °F 29.76 in WSW 4 mph 6 mph 70% 0.00 in 0 W/m2
03:50 71.4 °F 61.1 °F 29.76 in SSW 4 mph 4 mph 70% 0.00 in 0 W/m2
03:55 71.4 °F 61.1 °F 29.76 in SW 4 mph 5 mph 70% 0.00 in 0 W/m2
04:00 71.4 °F 60.7 °F 29.76 in SW 4 mph 4 mph 69% 0.00 in 0 W/m2
04:05 71.4 °F 61.1 °F 29.76 in WSW 4 mph 7 mph 70% 0.00 in 0 W/m2
04:10 71.4 °F 60.7 °F 29.76 in SW 4 mph 6 mph 69% 0.00 in 0 W/m2
04:15 71.4 °F 61.1 °F 29.76 in SSW 4 mph 6 mph 70% 0.00 in 0 W/m2
04:20 71.5 °F 60.8 °F 29.76 in SW 4 mph 4 mph 69% 0.00 in 0 W/m2
04:25 71.5 °F 60.8 °F 29.76 in SW 4 mph 5 mph 69% 0.00 in 0 W/m2
04:30 71.6 °F 60.5 °F 29.76 in SSW 4 mph 4 mph 68% 0.00 in 0 W/m2
04:35 71.8 °F 60.2 °F 29.76 in WSW 4 mph 5 mph 67% 0.00 in 0 W/m2
04:40 71.9 °F 60.3 °F 29.76 in SSW 5 mph 5 mph 67% 0.00 in 0 W/m2
04:45 72.1 °F 60.1 °F 29.76 in West 5 mph 6 mph 66% 0.00 in 0 W/m2
04:50 72.1 °F 59.7 °F 29.76 in SW 5 mph 5 mph 65% 0.00 in 0 W/m2
04:55 72.2 °F 59.8 °F 29.76 in SSE 5 mph 7 mph 65% 0.00 in 0 W/m2
05:00 72.3 °F 59.9 °F 29.76 in SW 5 mph 6 mph 65% 0.00 in 0 W/m2
05:05 72.2 °F 59.3 °F 29.76 in WSW 6 mph 6 mph 64% 0.00 in 0 W/m2
05:10 72.2 °F 60.2 °F 29.76 in SSW 6 mph 6 mph 66% 0.00 in 0 W/m2
05:15 72.2 °F 59.8 °F 29.76 in SW 5 mph 6 mph 65% 0.00 in 0 W/m2
05:20 72.2 °F 60.2 °F 29.76 in WSW 6 mph 8 mph 66% 0.00 in 0 W/m2
05:25 72.1 °F 60.1 °F 29.76 in SW 6 mph 8 mph 66% 0.00 in 0 W/m2
05:30 72 °F 59.6 °F 29.76 in SSE 6 mph 7 mph 65% 0.00 in 0 W/m2
05:35 71.9 °F 59.9 °F 29.76 in SSW 5 mph 7 mph 66% 0.00 in 0 W/m2
05:40 71.9 °F 60.3 °F 29.76 in SSW 5 mph 7 mph 67% 0.00 in 0 W/m2
05:45 71.8 °F 59.8 °F 29.76 in SSW 5 mph 7 mph 66% 0.00 in 0 W/m2
05:50 71.7 °F 60.6 °F 29.76 in SW 5 mph 6 mph 68% 0.00 in 0 W/m2
05:55 71.5 °F 60.4 °F 29.76 in SSW 6 mph 7 mph 68% 0.00 in 5 W/m2
06:00 71.5 °F 59.5 °F 29.77 in SSW 6 mph 6 mph 66% 0.00 in 9 W/m2
06:05 71.6 °F 60.1 °F 29.77 in SSW 6 mph 7 mph 67% 0.00 in 11 W/m2
06:10 71.6 °F 60.5 °F 29.77 in SW 6 mph 6 mph 68% 0.00 in 16 W/m2
06:15 71.5 °F 60.4 °F 29.77 in SW 6 mph 6 mph 68% 0.00 in 21 W/m2
06:20 71.4 °F 60.3 °F 29.77 in SW 5 mph 6 mph 68% 0.00 in 26 W/m2
06:25 71.3 °F 60.6 °F 29.78 in SW 5 mph 6 mph 69% 0.00 in 30 W/m2
06:30 71.3 °F 60.2 °F 29.78 in SSW 6 mph 8 mph 68% 0.00 in 32 W/m2
06:35 71.3 °F 59.8 °F 29.78 in SSW 5 mph 8 mph 67% 0.00 in 33 W/m2
06:40 71.3 °F 60.2 °F 29.78 in SSW 5 mph 7 mph 68% 0.00 in 37 W/m2
06:45 71.1 °F 60.4 °F 29.78 in SW 5 mph 7 mph 69% 0.00 in 40 W/m2
06:50 71 °F 59.9 °F 29.78 in SW 5 mph 6 mph 68% 0.00 in 40 W/m2
06:55 71 °F 60.3 °F 29.78 in WSW 5 mph 6 mph 69% 0.00 in 44 W/m2
07:00 70.9 °F 60.2 °F 29.78 in WSW 5 mph 5 mph 69% 0.00 in 46 W/m2
07:05 70.8 °F 60.1 °F 29.78 in SW 5 mph 6 mph 69% 0.00 in 56 W/m2
07:10 70.8 °F 60.1 °F 29.78 in WSW 5 mph 5 mph 69% 0.00 in 60 W/m2
07:15 70.8 °F 60.1 °F 29.79 in SW 5 mph 7 mph 69% 0.00 in 60 W/m2
07:20 70.8 °F 60.1 °F 29.79 in SSW 5 mph 7 mph 69% 0.00 in 60 W/m2
07:25 70.8 °F 60.1 °F 29.79 in SW 5 mph 7 mph 69% 0.00 in 69 W/m2
07:30 70.8 °F 60.1 °F 29.79 in SSW 5 mph 5 mph 69% 0.00 in 79 W/m2
07:35 70.8 °F 60.1 °F 29.80 in SSW 5 mph 5 mph 69% 0.00 in 90 W/m2
07:40 70.8 °F 59.7 °F 29.80 in SW 5 mph 7 mph 68% 0.00 in 109 W/m2
07:45 70.8 °F 60.5 °F 29.80 in SSW 5 mph 7 mph 70% 0.00 in 188 W/m2
07:50 70.8 °F 60.1 °F 29.80 in SW 5 mph 5 mph 69% 0.00 in 111 W/m2
07:55 70.8 °F 60.1 °F 29.80 in SSW 5 mph 5 mph 69% 0.00 in 237 W/m2
08:00 70.8 °F 60.1 °F 29.80 in WSW 4 mph 4 mph 69% 0.00 in 258 W/m2
08:05 70.9 °F 60.2 °F 29.80 in SW 4 mph 5 mph 69% 0.00 in 274 W/m2
08:10 70.9 °F 60.6 °F 29.80 in WNW 5 mph 5 mph 70% 0.00 in 302 W/m2
08:15 71 °F 60.7 °F 29.80 in SSW 5 mph 10 mph 70% 0.00 in 332 W/m2
08:20 71 °F 60.3 °F 29.80 in South 5 mph 5 mph 69% 0.00 in 334 W/m2
08:25 71.2 °F 60.5 °F 29.80 in SW 5 mph 5 mph 69% 0.00 in 378 W/m2
08:30 71.3 °F 60.2 °F 29.80 in South 6 mph 7 mph 68% 0.00 in 396 W/m2
08:35 71.3 °F 60.2 °F 29.80 in SW 6 mph 7 mph 68% 0.00 in 366 W/m2
08:40 71.3 °F 60.2 °F 29.80 in SW 6 mph 7 mph 68% 0.00 in 269 W/m2
08:45 71.3 °F 60.2 °F 29.80 in SW 5 mph 8 mph 68% 0.00 in 267 W/m2
08:50 71.4 °F 60.7 °F 29.80 in SW 5 mph 5 mph 69% 0.00 in 392 W/m2
08:55 71.4 °F 60.7 °F 29.80 in SW 5 mph 5 mph 69% 0.00 in 380 W/m2
09:00 71.4 °F 60.7 °F 29.80 in SSW 5 mph 5 mph 69% 0.00 in 278 W/m2
09:05 71.4 °F 60.7 °F 29.80 in SSW 5 mph 5 mph 69% 0.00 in 230 W/m2
09:10 71.3 °F 60.6 °F 29.80 in SSW 5 mph 5 mph 69% 0.00 in 322 W/m2
09:15 71.4 °F 61.1 °F 29.80 in SSW 5 mph 5 mph 70% 0.00 in 339 W/m2
09:20 71.4 °F 61.1 °F 29.81 in SSW 4 mph 5 mph 70% 0.00 in 469 W/m2
09:25 71.5 °F 61.6 °F 29.81 in SW 4 mph 6 mph 71% 0.00 in 496 W/m2
09:30 71.5 °F 61.6 °F 29.81 in SW 4 mph 4 mph 71% 0.00 in 510 W/m2
09:35 71.6 °F 61.3 °F 29.81 in SW 4 mph 4 mph 70% 0.00 in 520 W/m2
09:40 71.8 °F 61.5 °F 29.80 in WSW 5 mph 5 mph 70% 0.00 in 534 W/m2
09:45 71.9 °F 61.6 °F 29.80 in SSW 5 mph 5 mph 70% 0.00 in 547 W/m2
09:50 72.1 °F 61.4 °F 29.80 in SW 5 mph 5 mph 69% 0.00 in 557 W/m2
09:55 72.2 °F 61.9 °F 29.80 in SSW 5 mph 5 mph 70% 0.00 in 570 W/m2
10:00 72.3 °F 61.6 °F 29.80 in SW 5 mph 5 mph 69% 0.00 in 584 W/m2
10:05 72.2 °F 61.5 °F 29.80 in SSW 4 mph 5 mph 69% 0.00 in 598 W/m2
10:10 72.4 °F 62.1 °F 29.80 in SSW 4 mph 6 mph 70% 0.00 in 612 W/m2
10:15 72.6 °F 61.8 °F 29.80 in SW 4 mph 6 mph 69% 0.00 in 621 W/m2
10:20 72.8 °F 61.6 °F 29.80 in SSW 4 mph 6 mph 68% 0.00 in 636 W/m2
10:25 73 °F 61.8 °F 29.80 in WSW 5 mph 6 mph 68% 0.00 in 647 W/m2
10:30 73.2 °F 62.4 °F 29.80 in SSE 5 mph 5 mph 69% 0.00 in 661 W/m2
10:35 73.2 °F 62.4 °F 29.80 in SW 4 mph 5 mph 69% 0.00 in 675 W/m2
10:40 73.3 °F 62.5 °F 29.80 in WSW 4 mph 5 mph 69% 0.00 in 673 W/m2
10:45 73.3 °F 62.9 °F 29.80 in SSW 4 mph 5 mph 70% 0.00 in 693 W/m2
10:50 73.3 °F 63.3 °F 29.80 in SSW 4 mph 4 mph 71% 0.00 in 705 W/m2
10:55 73.3 °F 62.9 °F 29.80 in WSW 4 mph 4 mph 70% 0.00 in 719 W/m2
11:00 73.4 °F 63.4 °F 29.80 in SW 4 mph 4 mph 71% 0.00 in 719 W/m2
11:05 73.5 °F 63.5 °F 29.80 in South 4 mph 5 mph 71% 0.00 in 744 W/m2
11:10 73.8 °F 63.8 °F 29.80 in SW 4 mph 4 mph 71% 0.00 in 756 W/m2
11:15 73.8 °F 64.2 °F 29.80 in SSW 4 mph 5 mph 72% 0.00 in 752 W/m2
11:20 73.8 °F 63.8 °F 29.80 in WNW 3 mph 3 mph 71% 0.00 in 643 W/m2
11:25 73.9 °F 64.3 °F 29.80 in SSW 4 mph 4 mph 72% 0.00 in 712 W/m2
11:30 73.9 °F 63.9 °F 29.80 in SSW 4 mph 4 mph 71% 0.00 in 779 W/m2
11:35 74.1 °F 64.1 °F 29.79 in SSW 4 mph 4 mph 71% 0.00 in 805 W/m2
11:40 74.2 °F 64.6 °F 29.79 in WSW 4 mph 4 mph 72% 0.00 in 772 W/m2
11:45 74.3 °F 64.3 °F 29.79 in SSW 3 mph 4 mph 71% 0.00 in 740 W/m2
11:50 74.4 °F 64 °F 29.79 in SSW 3 mph 3 mph 70% 0.00 in 517 W/m2
11:55 74.5 °F 64.5 °F 29.79 in SW 4 mph 4 mph 71% 0.00 in 879 W/m2
12:00 74.7 °F 64.3 °F 29.79 in WNW 4 mph 5 mph 70% 0.00 in 817 W/m2
12:05 75 °F 65 °F 29.79 in WSW 4 mph 5 mph 71% 0.00 in 710 W/m2
12:10 75.1 °F 65.1 °F 29.79 in WSW 4 mph 4 mph 71% 0.00 in 803 W/m2
12:15 75.3 °F 64.8 °F 29.79 in NW 3 mph 4 mph 70% 0.00 in 821 W/m2
12:20 75.5 °F 65 °F 29.78 in SW 4 mph 4 mph 70% 0.00 in 828 W/m2
12:25 75.5 °F 65 °F 29.78 in WNW 4 mph 8 mph 70% 0.00 in 863 W/m2
12:30 75.7 °F 65.2 °F 29.78 in SSW 4 mph 4 mph 70% 0.00 in 817 W/m2
12:35 75.6 °F 65.1 °F 29.78 in WSW 4 mph 4 mph 70% 0.00 in 633 W/m2
12:40 75.8 °F 65.3 °F 29.78 in SW 3 mph 4 mph 70% 0.00 in 675 W/m2
12:45 76 °F 65.1 °F 29.78 in WSW 4 mph 4 mph 69% 0.00 in 807 W/m2
12:50 76.2 °F 64.9 °F 29.78 in WSW 4 mph 4 mph 68% 0.00 in 816 W/m2
12:55 76.2 °F 64.9 °F 29.78 in SSW 3 mph 4 mph 68% 0.00 in 548 W/m2
13:00 75.9 °F 65.4 °F 29.78 in SW 4 mph 4 mph 70% 0.00 in 872 W/m2
13:05 75.7 °F 65.2 °F 29.78 in SW 4 mph 4 mph 70% 0.00 in 826 W/m2
13:10 76.2 °F 65.7 °F 29.78 in SW 3 mph 3 mph 70% 0.00 in 918 W/m2
13:15 76.5 °F 66 °F 29.78 in WNW 3 mph 3 mph 70% 0.00 in 860 W/m2
13:20 76.7 °F 65.3 °F 29.78 in South 3 mph 5 mph 68% 0.00 in 879 W/m2
13:25 76.9 °F 66.4 °F 29.78 in SW 3 mph 5 mph 70% 0.00 in 828 W/m2
13:30 76.9 °F 66 °F 29.78 in West 3 mph 3 mph 69% 0.00 in 895 W/m2
13:35 77.2 °F 65.4 °F 29.78 in SW 3 mph 3 mph 67% 0.00 in 881 W/m2
13:40 77.1 °F 65.7 °F 29.78 in SW 4 mph 5 mph 68% 0.00 in 645 W/m2
13:45 76.6 °F 65.2 °F 29.78 in SW 4 mph 5 mph 68% 0.00 in 759 W/m2
13:50 76.3 °F 65.8 °F 29.78 in WSW 4 mph 4 mph 70% 0.00 in 823 W/m2
13:55 76 °F 65.1 °F 29.77 in West 4 mph 4 mph 69% 0.00 in 613 W/m2
14:00 76 °F 65.9 °F 29.77 in WSW 4 mph 4 mph 71% 0.00 in 867 W/m2
14:05 76.9 °F 66 °F 29.77 in NW 4 mph 4 mph 69% 0.00 in 814 W/m2
14:10 76.9 °F 66.4 °F 29.77 in SSW 4 mph 4 mph 70% 0.00 in 819 W/m2
14:15 76.9 °F 65.1 °F 29.77 in SW 4 mph 5 mph 67% 0.00 in 886 W/m2
14:20 77 °F 64.8 °F 29.76 in SW 4 mph 4 mph 66% 0.00 in 847 W/m2
14:25 77.8 °F 65.5 °F 29.76 in West 5 mph 5 mph 66% 0.00 in 881 W/m2
14:30 78.3 °F 66 °F 29.77 in SW 4 mph 4 mph 66% 0.00 in 895 W/m2
14:35 78.3 °F 66.4 °F 29.77 in WNW 4 mph 4 mph 67% 0.00 in 877 W/m2
14:40 78.4 °F 66.1 °F 29.76 in SW 4 mph 4 mph 66% 0.00 in 886 W/m2
14:45 78.1 °F 65.8 °F 29.77 in WSW 4 mph 4 mph 66% 0.00 in 886 W/m2
14:50 78.1 °F 65.8 °F 29.77 in WSW 3 mph 3 mph 66% 0.00 in 898 W/m2
14:55 78.2 °F 65.9 °F 29.77 in SW 3 mph 3 mph 66% 0.00 in 912 W/m2
15:00 78.7 °F 66.8 °F 29.77 in South 3 mph 3 mph 67% 0.00 in 967 W/m2
15:05 78.8 °F 65.6 °F 29.77 in SW 3 mph 3 mph 64% 0.00 in 853 W/m2
15:10 77.7 °F 65.4 °F 29.77 in WSW 3 mph 4 mph 66% 0.00 in 624 W/m2
15:15 77.1 °F 65.7 °F 29.77 in WSW 3 mph 4 mph 68% 0.00 in 677 W/m2
15:20 77.1 °F 66.6 °F 29.77 in WSW 3 mph 3 mph 70% 0.00 in 536 W/m2
15:25 76.7 °F 65.8 °F 29.77 in SW 3 mph 3 mph 69% 0.00 in 448 W/m2
15:30 76.8 °F 66.7 °F 29.77 in SW 3 mph 3 mph 71% 0.00 in 448 W/m2
15:35 77.4 °F 66.4 °F 29.77 in SW 3 mph 3 mph 69% 0.00 in 909 W/m2
15:40 78.1 °F 66.7 °F 29.77 in WSW 3 mph 3 mph 68% 0.00 in 886 W/m2
15:45 78.1 °F 66.2 °F 29.77 in SSW 3 mph 3 mph 67% 0.00 in 396 W/m2
15:50 77.7 °F 66.7 °F 29.77 in SW 3 mph 3 mph 69% 0.00 in 587 W/m2
15:55 78 °F 66.6 °F 29.76 in SW 4 mph 4 mph 68% 0.00 in 360 W/m2
16:00 77.9 °F 66.1 °F 29.77 in SSW 4 mph 5 mph 67% 0.00 in 339 W/m2
16:05 77.9 °F 66.1 °F 29.76 in SSE 3 mph 5 mph 67% 0.00 in 425 W/m2
16:10 77.9 °F 66.1 °F 29.76 in SSW 4 mph 4 mph 67% 0.00 in 327 W/m2
16:15 78.3 °F 65.6 °F 29.76 in SSW 4 mph 4 mph 65% 0.00 in 396 W/m2
16:20 78.2 °F 65.9 °F 29.76 in WSW 4 mph 4 mph 66% 0.00 in 403 W/m2
16:25 78.3 °F 66.4 °F 29.75 in SSW 4 mph 5 mph 67% 0.00 in 810 W/m2
16:30 78.7 °F 65.9 °F 29.75 in West 4 mph 4 mph 65% 0.00 in 752 W/m2
16:35 79.4 °F 66.2 °F 29.75 in SW 4 mph 5 mph 64% 0.00 in 722 W/m2
16:40 80 °F 66.3 °F 29.75 in SW 4 mph 4 mph 63% 0.00 in 740 W/m2
16:45 80.3 °F 66.6 °F 29.75 in SSW 4 mph 4 mph 63% 0.00 in 742 W/m2
16:50 80.5 °F 66.3 °F 29.75 in SW 5 mph 5 mph 62% 0.00 in 722 W/m2
16:55 80.5 °F 66.3 °F 29.75 in South 5 mph 5 mph 62% 0.00 in 693 W/m2
17:00 80.4 °F 66.6 °F 29.75 in SW 4 mph 4 mph 63% 0.00 in 647 W/m2
17:05 80.3 °F 67 °F 29.75 in SW 4 mph 4 mph 64% 0.00 in 628 W/m2
17:10 80.2 °F 66.5 °F 29.75 in SW 4 mph 4 mph 63% 0.00 in 617 W/m2
17:15 80 °F 67.2 °F 29.75 in West 4 mph 4 mph 65% 0.00 in 605 W/m2
17:20 79.8 °F 67 °F 29.75 in SW 4 mph 4 mph 65% 0.00 in 591 W/m2
17:25 79.8 °F 67.4 °F 29.76 in SW 3 mph 4 mph 66% 0.00 in 577 W/m2
17:30 79.6 °F 66.8 °F 29.76 in South 4 mph 4 mph 65% 0.00 in 563 W/m2
17:35 79.6 °F 66.3 °F 29.76 in SSE 4 mph 4 mph 64% 0.00 in 555 W/m2
17:40 79.6 °F 66.3 °F 29.76 in WSW 4 mph 4 mph 64% 0.00 in 538 W/m2
17:45 79.3 °F 66.5 °F 29.76 in WSW 4 mph 4 mph 65% 0.00 in 522 W/m2
17:50 79.1 °F 65.9 °F 29.76 in SSE 4 mph 4 mph 64% 0.00 in 506 W/m2
17:55 79 °F 66.7 °F 29.76 in SSW 3 mph 4 mph 66% 0.00 in 492 W/m2
18:00 78.7 °F 67.2 °F 29.76 in SSW 3 mph 3 mph 68% 0.00 in 476 W/m2
18:05 78.5 °F 66.6 °F 29.75 in SSW 3 mph 4 mph 67% 0.00 in 464 W/m2
18:10 78.5 °F 66.6 °F 29.76 in SW 3 mph 3 mph 67% 0.00 in 446 W/m2
18:15 78.7 °F 66.8 °F 29.75 in SSW 4 mph 4 mph 67% 0.00 in 434 W/m2
18:20 78.8 °F 67.3 °F 29.76 in SW 4 mph 4 mph 68% 0.00 in 427 W/m2
18:25 78.8 °F 66.9 °F 29.76 in SSW 3 mph 4 mph 67% 0.00 in 411 W/m2
18:30 78.7 °F 67.2 °F 29.76 in SW 3 mph 3 mph 68% 0.00 in 392 W/m2
18:35 78.5 °F 67.1 °F 29.76 in SSW 3 mph 3 mph 68% 0.00 in 374 W/m2
18:40 78.3 °F 67.3 °F 29.76 in SW 3 mph 3 mph 69% 0.00 in 355 W/m2
18:45 78.1 °F 67.1 °F 29.76 in WSW 3 mph 3 mph 69% 0.00 in 338 W/m2
18:50 78.2 °F 67.6 °F 29.76 in SSW 3 mph 4 mph 70% 0.00 in 330 W/m2
18:55 78.2 °F 67.2 °F 29.76 in SW 3 mph 4 mph 69% 0.00 in 320 W/m2
19:00 78.1 °F 67.1 °F 29.76 in NW 3 mph 3 mph 69% 0.00 in 302 W/m2
19:05 78 °F 67.4 °F 29.76 in South 3 mph 3 mph 70% 0.00 in 211 W/m2
19:10 77.9 °F 66.9 °F 29.76 in SW 3 mph 4 mph 69% 0.00 in 229 W/m2
19:15 77.9 °F 66.9 °F 29.76 in SW 3 mph 4 mph 69% 0.00 in 227 W/m2
19:20 77.8 °F 66.8 °F 29.76 in SW 3 mph 3 mph 69% 0.00 in 199 W/m2
19:25 77.6 °F 66.2 °F 29.76 in WSW 3 mph 3 mph 68% 0.00 in 216 W/m2
19:30 77.4 °F 66.4 °F 29.76 in WSW 3 mph 4 mph 69% 0.00 in 229 W/m2
19:35 77 °F 66 °F 29.76 in WSW 3 mph 4 mph 69% 0.00 in 155 W/m2
19:40 76.7 °F 67.4 °F 29.76 in SSE 3 mph 5 mph 73% 0.00 in 197 W/m2
19:45 76.4 °F 66.7 °F 29.76 in SW 2 mph 5 mph 72% 0.00 in 186 W/m2
19:50 76.4 °F 66.3 °F 29.76 in SSW 3 mph 3 mph 71% 0.00 in 172 W/m2
19:55 76.6 °F 66.1 °F 29.76 in SSW 2 mph 3 mph 70% 0.00 in 146 W/m2
20:00 76.8 °F 66.3 °F 29.77 in SSW 2 mph 2 mph 70% 0.00 in 90 W/m2
20:05 76.9 °F 66.4 °F 29.77 in SSW 2 mph 2 mph 70% 0.00 in 65 W/m2
20:10 77 °F 67.3 °F 29.77 in SW 2 mph 3 mph 72% 0.00 in 63 W/m2
20:15 76.9 °F 66.4 °F 29.77 in SSW 2 mph 3 mph 70% 0.00 in 60 W/m2
20:20 77 °F 66.5 °F 29.77 in SSW 3 mph 3 mph 70% 0.00 in 63 W/m2
20:25 77.2 °F 66.7 °F 29.77 in SSW 3 mph 3 mph 70% 0.00 in 47 W/m2
20:30 77.1 °F 67 °F 29.77 in SW 3 mph 3 mph 71% 0.00 in 46 W/m2
20:35 76.9 °F 66.4 °F 29.77 in South 3 mph 3 mph 70% 0.00 in 39 W/m2
20:40 77 °F 65.6 °F 29.77 in SW 2 mph 2 mph 68% 0.00 in 37 W/m2
20:45 77.2 °F 66.2 °F 29.77 in SSW 2 mph 5 mph 69% 0.00 in 28 W/m2
20:50 77.1 °F 66.6 °F 29.77 in SSW 3 mph 4 mph 70% 0.00 in 21 W/m2
20:55 76.9 °F 66.4 °F 29.78 in SSW 3 mph 4 mph 70% 0.00 in 18 W/m2
21:00 76.8 °F 65.9 °F 29.78 in WNW 3 mph 3 mph 69% 0.00 in 12 W/m2
21:05 76.7 °F 65.8 °F 29.78 in SSE 3 mph 3 mph 69% 0.00 in 9 W/m2
21:10 76.6 °F 66.1 °F 29.78 in WSW 3 mph 3 mph 70% 0.00 in 7 W/m2
21:15 76.5 °F 65.6 °F 29.78 in SSW 3 mph 3 mph 69% 0.00 in 0 W/m2
21:20 76.4 °F 65.9 °F 29.78 in SSW 3 mph 4 mph 70% 0.00 in 0 W/m2
21:25 76.4 °F 66.3 °F 29.78 in South 3 mph 4 mph 71% 0.00 in 0 W/m2
21:30 76.2 °F 66.1 °F 29.78 in South 3 mph 3 mph 71% 0.00 in 0 W/m2
21:35 76.4 °F 65.5 °F 29.78 in SSW 3 mph 3 mph 69% 0.00 in 0 W/m2
21:40 76.8 °F 65.9 °F 29.78 in SSW 3 mph 3 mph 69% 0.00 in 0 W/m2
21:45 77.1 °F 65.7 °F 29.78 in SSW 3 mph 3 mph 68% 0.00 in 0 W/m2
21:50 77.3 °F 65.5 °F 29.78 in SSW 2 mph 2 mph 67% 0.00 in 0 W/m2
21:55 77.5 °F 65.2 °F 29.78 in SSW 2 mph 2 mph 66% 0.00 in 0 W/m2
22:00 77.8 °F 66 °F 29.78 in SSW 2 mph 2 mph 67% 0.00 in 0 W/m2
22:05 77.8 °F 64.6 °F 29.79 in SW 2 mph 3 mph 64% 0.00 in 0 W/m2
22:10 78.2 °F 64.6 °F 29.79 in SSW 2 mph 2 mph 63% 0.00 in 0 W/m2
22:15 78.4 °F 64.8 °F 29.79 in SSW 3 mph 4 mph 63% 0.00 in 0 W/m2
22:20 78.7 °F 65 °F 29.79 in SSW 3 mph 4 mph 63% 0.00 in 0 W/m2
22:25 78.7 °F 65 °F 29.80 in SW 3 mph 4 mph 63% 0.00 in 0 W/m2
22:30 78.7 °F 65 °F 29.80 in South 3 mph 5 mph 63% 0.00 in 0 W/m2
22:35 78.4 °F 65.7 °F 29.80 in SSW 3 mph 5 mph 65% 0.00 in 0 W/m2
22:40 78.2 °F 65.5 °F 29.80 in SSW 3 mph 3 mph 65% 0.00 in 0 W/m2
22:45 78 °F 65.7 °F 29.80 in SSW 3 mph 3 mph 66% 0.00 in 0 W/m2
22:50 77.9 °F 65.2 °F 29.80 in SSW 3 mph 3 mph 65% 0.00 in 0 W/m2
22:55 77.9 °F 65.2 °F 29.80 in SSW 3 mph 3 mph 65% 0.00 in 0 W/m2
23:00 77.8 °F 64.6 °F 29.81 in SW 2 mph 2 mph 64% 0.00 in 0 W/m2
23:05 77.8 °F 65.1 °F 29.80 in SW 1 mph 2 mph 65% 0.00 in 0 W/m2
23:10 77.8 °F 65.1 °F 29.80 in SSW 1 mph 1 mph 65% 0.00 in 0 W/m2
23:15 77.9 °F 65.2 °F 29.81 in SSW 1 mph 1 mph 65% 0.00 in 0 W/m2
23:20 78 °F 64.8 °F 29.81 in SSW 1 mph 1 mph 64% 0.00 in 0 W/m2
23:25 77.9 °F 65.6 °F 29.81 in SW 1 mph 1 mph 66% 0.00 in 0 W/m2
23:30 77.6 °F 65.3 °F 29.80 in WSW 1 mph 1 mph 66% 0.00 in 0 W/m2
23:35 77.5 °F 65.7 °F 29.80 in SW 1 mph 2 mph 67% 0.00 in 0 W/m2
23:40 76.8 °F 66.3 °F 29.80 in WNW 1 mph 1 mph 70% 0.00 in 0 W/m2
23:45 76.4 °F 66.7 °F 29.80 in WNW 1 mph 1 mph 72% 0.00 in 0 W/m2
23:50 75.8 °F 66.5 °F 29.80 in WNW 1 mph 1 mph 73% 0.00 in 0 W/m2
23:55 75.8 °F 65.7 °F 29.80 in NW 1 mph 1 mph 71% 0.00 in 0 W/m2
Sand Point, Michigan, USA
Compliments of Weather Underground - 2 mb